Clearwater, British Columbia

Past 24 Hour Conditions

Date / Time
(PDT)
Conditions Temp
(°F)
Humidity
(%)
Dew Point
(°F)
Wind
(mph)
Pressure
(inches)
Visibility
(miles)
24 October 2014
11:00 N/A 48 64 36 SW 2 30.1 N/A
10:00 N/A 44 78 38 calm 30.1 N/A
9:00 N/A 39 91 37 calm 30.0 N/A
8:00 N/A 38   92 36 calm 30.0 N/A
7:00 N/A 40 91 37 NW 3 30.0 N/A
6:00 N/A 41 91 38 calm 30.0 N/A
5:00 N/A 40 89 37 calm 29.9 N/A
4:00 N/A 40 89 37 E 3 29.9 N/A
3:00 N/A 42 85 38 NE 3 29.9 N/A
2:00 N/A 45 76 38 SW 7 29.9 N/A
1:00 N/A 45 75 38 SW 5 29.9 N/A
00:00 N/A 45 82 39 WSW 3 29.8 N/A
23 October 2014
23:00 N/A 44 92 42 calm 29.8 N/A
22:00 N/A 44 92 42 calm 29.7 N/A
21:00 N/A 45 91 42 calm 29.7 N/A
20:00 N/A 45 91 42 NNW 3 29.7 N/A
19:00 N/A 45 90 42 calm 29.7 N/A
18:00 N/A 45 91 43 calm 29.7 N/A
17:00 N/A 46 86 42 WNW 3 29.6 N/A
16:00 N/A 46 84 42 WSW 5 29.6 N/A
15:00 N/A 49 73 40 WSW 5 29.6 N/A
14:00 N/A 51   63 39 calm 29.6 N/A
13:00 N/A 50 65 39 SSW 2 29.6 N/A
12:00 N/A 49 77 42 ENE 3 29.6 N/A
11:00 N/A 49 73 40 ENE 2 29.6 N/A
N/A Not available
↑ Highest temperature
↓ Lowest temperature

If you require additional historical weather information, please visit Climate Data Online.

Date modified: